createdAt,value
2022-12-05T00:01:50.390Z,77.94
2022-12-05T00:04:22.258Z,77.96
2022-12-05T00:06:53.921Z,78.04
2022-12-05T00:09:25.549Z,78.06
2022-12-05T00:11:57.787Z,78.12
2022-12-05T00:14:29.510Z,78.08
2022-12-05T00:17:01.254Z,78.27
2022-12-05T00:19:33.040Z,77.86
2022-12-05T00:22:04.664Z,78.32
2022-12-05T00:24:36.291Z,78.28
2022-12-05T00:27:07.895Z,77.94
2022-12-05T00:29:39.597Z,78.09
2022-12-05T00:32:11.251Z,78.13
2022-12-05T00:34:42.895Z,77.82
2022-12-05T00:37:14.458Z,77.69
2022-12-05T00:39:46.337Z,77.74
2022-12-05T00:42:17.929Z,77.87
2022-12-05T00:44:50.752Z,77.88
2022-12-05T00:47:22.336Z,77.39
2022-12-05T00:49:53.894Z,77.87
2022-12-05T00:52:25.440Z,77.64
2022-12-05T00:54:57.443Z,77.60
2022-12-05T00:57:29.106Z,77.82
2022-12-05T01:00:00.807Z,77.33
2022-12-05T01:02:32.508Z,77.74
2022-12-05T01:05:04.460Z,77.83
2022-12-05T01:07:36.137Z,77.52
2022-12-05T01:10:08.166Z,77.28
2022-12-05T01:12:39.761Z,77.38
2022-12-05T01:15:14.860Z,77.16
2022-12-05T01:17:46.522Z,77.52
2022-12-05T01:20:18.216Z,77.25
2022-12-05T01:22:49.780Z,77.25
2022-12-05T01:25:21.410Z,77.58
2022-12-05T01:27:53.114Z,77.40
2022-12-05T01:30:25.032Z,77.19
2022-12-05T01:32:56.705Z,77.37
2022-12-05T01:35:34.798Z,77.14
2022-12-05T01:38:06.693Z,77.42
2022-12-05T01:40:38.896Z,77.47
2022-12-05T01:43:15.045Z,77.19
2022-12-05T01:45:46.787Z,77.58
2022-12-05T01:48:23.076Z,77.09
2022-12-05T01:50:55.332Z,76.71
2022-12-05T01:53:28.270Z,77.04
2022-12-05T01:55:59.951Z,77.10
2022-12-05T01:58:38.807Z,76.66
2022-12-05T02:01:15.013Z,76.80
2022-12-05T02:03:50.476Z,76.98
2022-12-05T02:06:23.546Z,76.58
2022-12-05T02:08:55.416Z,76.40
2022-12-05T02:11:29.516Z,76.67
2022-12-05T02:14:14.191Z,76.36
2022-12-05T02:17:23.952Z,76.06
2022-12-05T02:20:17.149Z,76.33
2022-12-05T02:23:15.188Z,76.39
2022-12-05T02:26:17.796Z,76.75
2022-12-05T02:29:12.848Z,76.01
2022-12-05T02:31:45.527Z,76.30
2022-12-05T02:34:31.072Z,76.69
2022-12-05T02:37:22.902Z,76.21
2022-12-05T02:40:25.852Z,76.13
2022-12-05T02:43:11.430Z,75.94
2022-12-05T02:45:45.322Z,76.11
2022-12-05T02:48:18.192Z,76.03
2022-12-05T02:50:52.337Z,75.77
2022-12-05T02:53:30.174Z,75.62
2022-12-05T02:56:02.921Z,75.71
2022-12-05T02:58:39.104Z,75.89
2022-12-05T03:01:11.401Z,75.37
2022-12-05T03:03:43.104Z,75.91
2022-12-05T03:06:20.938Z,75.68
2022-12-05T03:09:04.337Z,75.05
2022-12-05T03:11:45.676Z,75.43
2022-12-05T03:14:28.875Z,75.26
2022-12-05T03:17:11.575Z,75.20
2022-12-05T03:19:50.294Z,75.74
2022-12-05T03:22:37.776Z,75.54
2022-12-05T03:25:10.279Z,75.79
2022-12-05T03:27:53.906Z,76.02
2022-12-05T03:30:25.860Z,75.94
2022-12-05T03:33:11.015Z,75.56
2022-12-05T03:35:50.968Z,75.41
2022-12-05T03:38:32.884Z,75.47
2022-12-05T03:41:25.007Z,75.15
2022-12-05T03:44:31.682Z,75.10
2022-12-05T03:47:22.887Z,75.37
2022-12-05T03:50:03.569Z,75.24
2022-12-05T03:53:11.487Z,75.05
2022-12-05T03:55:40.524Z,75.30
2022-12-05T03:58:19.555Z,74.94
2022-12-05T04:00:54.239Z,75.40
2022-12-05T04:03:40.053Z,75.78
2022-12-05T04:06:23.970Z,75.49
2022-12-05T04:09:03.343Z,75.60
2022-12-05T04:11:40.753Z,75.49
2022-12-05T04:14:17.374Z,75.73
2022-12-05T04:17:10.346Z,75.89
2022-12-05T04:20:23.628Z,76.06
2022-12-05T04:22:55.262Z,75.63
2022-12-05T04:25:33.741Z,75.79
2022-12-05T04:28:32.481Z,75.51
2022-12-05T04:31:22.625Z,76.02
2022-12-05T04:34:14.654Z,75.87
2022-12-05T04:37:19.633Z,75.86
2022-12-05T04:39:58.881Z,75.68
2022-12-05T04:42:34.242Z,76.11
2022-12-05T04:45:10.354Z,75.89
2022-12-05T04:47:48.520Z,75.78
2022-12-05T04:50:21.823Z,75.89
2022-12-05T04:52:56.286Z,75.85
2022-12-05T04:55:30.926Z,76.07
2022-12-05T04:58:16.010Z,76.10
2022-12-05T05:01:08.015Z,75.76
2022-12-05T05:03:48.637Z,76.11
2022-12-05T05:06:20.392Z,75.88
2022-12-05T05:08:54.589Z,76.31
2022-12-05T05:11:33.460Z,76.67
2022-12-05T05:14:05.210Z,75.96
2022-12-05T05:16:39.969Z,75.80
2022-12-05T05:19:11.995Z,75.71
2022-12-05T05:21:43.969Z,76.26
2022-12-05T05:24:15.945Z,76.02
2022-12-05T05:26:52.446Z,76.12
2022-12-05T05:29:27.250Z,76.41
2022-12-05T05:31:58.952Z,76.00
2022-12-05T05:34:30.604Z,76.16
2022-12-05T05:37:02.179Z,76.31
2022-12-05T05:39:33.756Z,76.56
2022-12-05T05:42:05.581Z,76.76
2022-12-05T05:44:37.551Z,77.19
2022-12-05T05:47:09.276Z,77.18
2022-12-05T05:49:43.570Z,77.28
2022-12-05T05:52:15.234Z,77.02
2022-12-05T05:54:46.796Z,76.92
2022-12-05T05:57:20.478Z,77.08
2022-12-05T05:59:52.440Z,77.12
2022-12-05T06:02:24.233Z,76.86
2022-12-05T06:04:55.871Z,76.63
2022-12-05T06:07:28.160Z,77.11
2022-12-05T06:10:00.097Z,76.50
2022-12-05T06:12:32.136Z,77.25
2022-12-05T06:15:04.447Z,76.84
2022-12-05T06:17:36.232Z,76.80
2022-12-05T06:20:11.970Z,76.82
2022-12-05T06:22:43.545Z,76.77
2022-12-05T06:25:15.178Z,77.03
2022-12-05T06:27:46.791Z,76.64
2022-12-05T06:30:18.493Z,76.56
2022-12-05T06:32:50.176Z,76.65
2022-12-05T06:35:21.761Z,76.56
2022-12-05T06:37:53.416Z,76.75
2022-12-05T06:40:25.215Z,76.90
2022-12-05T06:42:56.832Z,76.47
2022-12-05T06:45:28.869Z,76.10
2022-12-05T06:48:00.499Z,76.35
2022-12-05T06:50:32.138Z,76.16
2022-12-05T06:53:03.697Z,76.10
2022-12-05T06:55:35.305Z,76.04
2022-12-05T06:58:06.968Z,76.27
2022-12-05T07:00:57.106Z,76.18
2022-12-05T07:03:28.698Z,76.41
2022-12-05T07:06:01.398Z,76.26
2022-12-05T07:08:33.985Z,76.52
2022-12-05T07:11:05.733Z,75.90
2022-12-05T07:13:37.418Z,75.61
2022-12-05T07:16:09.303Z,75.79
2022-12-05T07:18:41.120Z,75.51
2022-12-05T07:21:15.018Z,75.50
2022-12-05T07:23:47.124Z,75.48
2022-12-05T07:26:21.909Z,75.68
2022-12-05T07:28:55.633Z,75.68
2022-12-05T07:31:29.868Z,74.99
2022-12-05T07:34:01.754Z,75.34
2022-12-05T07:36:36.377Z,75.30
2022-12-05T07:39:08.055Z,75.01
2022-12-05T07:41:39.649Z,75.32
2022-12-05T07:44:13.670Z,75.53
2022-12-05T07:46:45.278Z,75.22
2022-12-05T07:49:17.086Z,75.80
2022-12-05T07:51:49.821Z,75.36
2022-12-05T07:54:21.463Z,75.72
2022-12-05T07:56:53.551Z,76.32
2022-12-05T07:59:25.259Z,75.96
2022-12-05T08:01:57.016Z,76.15
2022-12-05T08:04:28.942Z,75.68
2022-12-05T08:07:00.773Z,75.73
2022-12-05T08:09:34.922Z,75.71
2022-12-05T08:12:07.147Z,76.05
2022-12-05T08:14:38.963Z,75.43
2022-12-05T08:17:10.872Z,75.78
2022-12-05T08:19:45.454Z,75.39
2022-12-05T08:22:17.155Z,75.73
2022-12-05T08:24:56.299Z,75.96
2022-12-05T08:27:28.279Z,75.90
2022-12-05T08:30:00.158Z,76.15
2022-12-05T08:32:32.082Z,75.51
2022-12-05T08:35:04.090Z,75.22
2022-12-05T08:37:35.969Z,75.45
2022-12-05T08:40:08.461Z,75.27
2022-12-05T08:42:40.657Z,75.37
2022-12-05T08:45:12.320Z,75.81
2022-12-05T08:47:43.929Z,76.59
2022-12-05T08:50:15.783Z,76.98
2022-12-05T08:52:47.421Z,77.15
2022-12-05T08:55:19.075Z,77.22
2022-12-05T08:57:51.061Z,77.22
2022-12-05T09:00:22.825Z,76.99
2022-12-05T09:02:58.439Z,76.65
2022-12-05T09:05:30.537Z,76.87
2022-12-05T09:08:02.425Z,77.01
2022-12-05T09:10:34.167Z,76.40
2022-12-05T09:13:05.758Z,76.60
2022-12-05T09:15:38.956Z,76.50
2022-12-05T09:18:12.627Z,76.54
2022-12-05T09:20:44.543Z,76.22
2022-12-05T09:23:16.387Z,76.71
2022-12-05T09:25:56.223Z,76.44
2022-12-05T09:28:28.429Z,76.09
2022-12-05T09:31:03.519Z,76.01
2022-12-05T09:33:37.204Z,75.56
2022-12-05T09:36:13.561Z,75.53
2022-12-05T09:38:45.357Z,75.67
2022-12-05T09:41:54.252Z,75.79
2022-12-05T09:44:25.784Z,75.85
2022-12-05T09:47:14.185Z,75.88
2022-12-05T09:49:51.465Z,75.74
2022-12-05T09:52:29.002Z,75.68
2022-12-05T09:55:14.652Z,75.39
2022-12-05T09:57:56.478Z,75.51
2022-12-05T10:00:30.392Z,75.95
2022-12-05T10:03:29.174Z,76.03
2022-12-05T10:06:19.937Z,76.40
2022-12-05T10:09:03.575Z,76.10
2022-12-05T10:11:41.484Z,75.86
2022-12-05T10:14:39.264Z,75.64
2022-12-05T10:17:26.833Z,75.08
2022-12-05T10:20:03.470Z,75.33
2022-12-05T10:22:46.406Z,74.93
2022-12-05T10:25:21.290Z,75.11
2022-12-05T10:28:26.262Z,74.29
2022-12-05T10:31:02.610Z,74.59
2022-12-05T10:33:41.153Z,74.72
2022-12-05T10:36:14.436Z,74.17
2022-12-05T10:38:46.341Z,74.16
2022-12-05T10:41:18.189Z,74.04
2022-12-05T10:43:49.875Z,73.98
2022-12-05T10:46:22.779Z,73.54
2022-12-05T10:48:54.586Z,73.54
2022-12-05T10:51:35.609Z,73.49
2022-12-05T10:54:23.679Z,73.51
2022-12-05T10:56:55.826Z,73.27
2022-12-05T10:59:45.773Z,72.59
2022-12-05T11:02:29.739Z,73.11
2022-12-05T11:05:02.138Z,72.80
2022-12-05T11:07:34.153Z,72.47
2022-12-05T11:10:27.099Z,71.90
2022-12-05T11:13:02.334Z,72.15
2022-12-05T11:15:34.772Z,71.71
2022-12-05T11:18:41.750Z,71.51
2022-12-05T11:21:14.768Z,71.20
2022-12-05T11:23:48.195Z,71.59
2022-12-05T11:26:39.968Z,71.52
2022-12-05T11:29:30.715Z,71.26
2022-12-05T11:32:05.738Z,71.54
2022-12-05T11:34:46.219Z,71.22
2022-12-05T11:37:24.412Z,70.68
2022-12-05T11:39:56.034Z,70.33
2022-12-05T11:42:34.359Z,70.77
2022-12-05T11:45:30.378Z,70.37
2022-12-05T11:48:18.849Z,70.42
2022-12-05T11:50:59.150Z,70.83
2022-12-05T11:53:51.938Z,70.93
2022-12-05T11:56:37.142Z,70.54
2022-12-05T11:59:17.611Z,70.43
2022-12-05T12:01:54.944Z,70.63
2022-12-05T12:04:35.492Z,70.48
2022-12-05T12:08:02.988Z,70.89
2022-12-05T12:10:55.688Z,70.88
2022-12-05T12:14:09.188Z,70.90
2022-12-05T12:16:56.160Z,71.46
2022-12-05T12:19:47.829Z,70.86
2022-12-05T12:22:19.324Z,70.83
2022-12-05T12:25:12.336Z,71.38
2022-12-05T12:27:51.965Z,71.10
2022-12-05T12:30:37.451Z,70.82
2022-12-05T12:33:27.465Z,70.71
2022-12-05T12:36:18.427Z,70.23
2022-12-05T12:39:26.396Z,69.85
2022-12-05T12:42:20.656Z,70.04
2022-12-05T12:45:20.988Z,69.49
2022-12-05T12:47:52.508Z,69.77
2022-12-05T12:50:28.480Z,69.45
2022-12-05T12:53:30.872Z,69.53
2022-12-05T12:56:38.494Z,69.55
2022-12-05T12:59:41.063Z,69.16
2022-12-05T13:02:26.948Z,69.24
2022-12-05T13:05:04.770Z,69.42
2022-12-05T13:07:47.100Z,69.05
2022-12-05T13:10:37.305Z,69.79
2022-12-05T13:13:16.107Z,69.64
2022-12-05T13:15:53.020Z,69.33
2022-12-05T13:18:25.823Z,69.71
2022-12-05T13:21:01.079Z,69.40
2022-12-05T13:23:36.493Z,69.31
2022-12-05T13:26:11.363Z,69.29
2022-12-05T13:28:58.219Z,68.88
2022-12-05T13:31:40.303Z,68.86
2022-12-05T13:34:27.351Z,68.67
2022-12-05T13:37:19.115Z,68.92
2022-12-05T13:40:11.797Z,68.99
2022-12-05T13:42:44.007Z,68.89
2022-12-05T13:45:20.495Z,68.70
2022-12-05T13:47:59.197Z,69.49
2022-12-05T13:50:41.023Z,69.18
2022-12-05T13:53:18.595Z,69.14
2022-12-05T13:56:06.491Z,69.05
2022-12-05T13:58:47.897Z,70.01
2022-12-05T14:01:26.027Z,69.52
2022-12-05T14:04:00.975Z,70.31
2022-12-05T14:06:53.007Z,70.94
2022-12-05T14:09:51.038Z,70.54
2022-12-05T14:12:22.578Z,70.85
2022-12-05T14:15:02.273Z,71.15
2022-12-05T14:17:45.033Z,71.25
2022-12-05T14:20:28.675Z,71.22
2022-12-05T14:23:09.410Z,71.41
2022-12-05T14:25:59.692Z,70.75
2022-12-05T14:28:48.294Z,71.50
2022-12-05T14:31:41.351Z,71.19
2022-12-05T14:34:20.859Z,71.33
2022-12-05T14:37:15.524Z,71.77
2022-12-05T14:39:52.102Z,71.61
2022-12-05T14:42:41.741Z,71.55
2022-12-05T14:45:30.965Z,71.50
2022-12-05T14:48:29.350Z,71.46
2022-12-05T14:51:01.692Z,72.34
2022-12-05T14:53:36.875Z,71.76
2022-12-05T14:56:12.250Z,71.90
2022-12-05T14:58:48.868Z,71.88
2022-12-05T15:01:33.375Z,71.83
2022-12-05T15:04:25.964Z,71.95
2022-12-05T15:07:05.581Z,71.56
2022-12-05T15:10:01.728Z,71.84
2022-12-05T15:12:46.281Z,71.59
2022-12-05T15:15:31.346Z,72.03
2022-12-05T15:18:09.748Z,71.89
2022-12-05T15:21:07.675Z,71.80
2022-12-05T15:23:40.073Z,71.62
2022-12-05T15:26:46.793Z,71.34
2022-12-05T15:29:23.242Z,71.94
2022-12-05T15:32:00.752Z,71.74
2022-12-05T15:34:44.085Z,72.13
2022-12-05T15:37:37.495Z,71.93
2022-12-05T15:40:09.161Z,71.99
2022-12-05T15:42:40.789Z,72.13
2022-12-05T15:45:21.693Z,72.22
2022-12-05T15:48:12.636Z,71.96
2022-12-05T15:50:49.842Z,71.71
2022-12-05T15:53:42.391Z,71.43
2022-12-05T15:56:39.089Z,71.50
2022-12-05T15:59:52.264Z,71.75
2022-12-05T16:02:30.671Z,71.47
2022-12-05T16:05:02.517Z,71.64
2022-12-05T16:07:38.390Z,71.97
2022-12-05T16:10:13.752Z,71.38
2022-12-05T16:12:45.502Z,71.34
2022-12-05T16:15:24.882Z,71.35
2022-12-05T16:17:59.566Z,71.84
2022-12-05T16:20:34.455Z,71.48
2022-12-05T16:23:32.293Z,71.38
2022-12-05T16:26:12.937Z,71.48
2022-12-05T16:29:00.254Z,71.57
2022-12-05T16:31:34.061Z,71.32
2022-12-05T16:34:08.496Z,71.54
2022-12-05T16:36:50.415Z,71.69
2022-12-05T16:39:23.138Z,72.21
2022-12-05T16:41:55.468Z,71.90
2022-12-05T16:44:26.982Z,71.75
2022-12-05T16:46:58.741Z,72.38
2022-12-05T16:49:30.482Z,71.88
2022-12-05T16:52:14.070Z,72.19
2022-12-05T16:54:48.310Z,72.18
2022-12-05T16:57:20.025Z,72.15
2022-12-05T16:59:51.593Z,71.92
2022-12-05T17:02:23.219Z,72.23
2022-12-05T17:04:54.970Z,72.28
2022-12-05T17:07:29.725Z,72.42
2022-12-05T17:10:06.283Z,72.30
2022-12-05T17:12:38.808Z,73.02
2022-12-05T17:15:18.439Z,72.98
2022-12-05T17:17:50.047Z,72.93
2022-12-05T17:20:21.707Z,72.85
2022-12-05T17:22:55.662Z,73.37
2022-12-05T17:25:34.935Z,73.11
2022-12-05T17:28:07.050Z,72.97
2022-12-05T17:30:39.842Z,73.32
2022-12-05T17:33:17.281Z,73.17
2022-12-05T17:35:48.981Z,73.89
2022-12-05T17:38:20.931Z,73.66
2022-12-05T17:40:52.669Z,73.95
2022-12-05T17:43:25.523Z,74.36
2022-12-05T17:46:00.436Z,74.18
2022-12-05T17:48:31.953Z,74.36
2022-12-05T17:51:06.653Z,74.64
2022-12-05T17:53:38.863Z,74.45
2022-12-05T17:56:10.598Z,74.59
2022-12-05T17:58:42.644Z,75.00
2022-12-05T18:01:18.007Z,74.89
2022-12-05T18:03:50.025Z,75.67
2022-12-05T18:06:21.625Z,75.02
2022-12-05T18:08:53.387Z,74.93
2022-12-05T18:11:25.077Z,75.41
2022-12-05T18:13:56.782Z,75.28
2022-12-05T18:16:28.428Z,75.58
2022-12-05T18:19:01.211Z,75.51
2022-12-05T18:21:32.909Z,75.67
2022-12-05T18:24:04.709Z,75.53
2022-12-05T18:26:39.156Z,75.75
2022-12-05T18:29:10.885Z,75.53
2022-12-05T18:31:43.085Z,75.97
2022-12-05T18:34:15.047Z,75.82
2022-12-05T18:36:46.689Z,76.10
2022-12-05T18:39:18.454Z,75.79
2022-12-05T18:41:50.101Z,75.60
2022-12-05T18:44:21.876Z,75.62
2022-12-05T18:46:53.485Z,76.29
2022-12-05T18:49:25.115Z,76.00
2022-12-05T18:51:56.736Z,76.27
2022-12-05T18:54:28.401Z,75.83
2022-12-05T18:56:59.997Z,76.00
2022-12-05T18:59:31.645Z,76.12
2022-12-05T19:02:04.857Z,76.27
2022-12-05T19:04:39.038Z,76.18
2022-12-05T19:07:10.598Z,76.57
2022-12-05T19:09:42.375Z,76.35
2022-12-05T19:12:14.180Z,76.39
2022-12-05T19:14:46.835Z,76.71
2022-12-05T19:17:18.458Z,76.61
2022-12-05T19:19:54.510Z,76.78
2022-12-05T19:22:30.830Z,76.44
2022-12-05T19:25:03.405Z,76.65
2022-12-05T19:27:35.173Z,76.68
2022-12-05T19:30:13.330Z,76.75
2022-12-05T19:32:44.975Z,76.53
2022-12-05T19:35:16.553Z,76.51
2022-12-05T19:37:48.157Z,76.93
2022-12-05T19:40:19.733Z,76.48
2022-12-05T19:42:51.351Z,76.95
2022-12-05T19:45:22.918Z,76.60
2022-12-05T19:47:54.487Z,77.08
2022-12-05T19:50:26.091Z,76.86
2022-12-05T19:52:57.693Z,77.01
2022-12-05T19:55:30.260Z,76.81
2022-12-05T19:58:01.919Z,76.96
2022-12-05T20:00:33.662Z,76.54
2022-12-05T20:03:09.165Z,76.85
2022-12-05T20:05:43.755Z,76.47
2022-12-05T20:08:15.421Z,76.38
2022-12-05T20:10:47.005Z,76.64
2022-12-05T20:13:46.019Z,76.64
2022-12-05T20:16:15.931Z,77.33
2022-12-05T20:18:48.794Z,77.13
2022-12-05T20:21:24.564Z,77.39
2022-12-05T20:24:00.881Z,77.19
2022-12-05T20:26:36.030Z,77.26
2022-12-05T20:29:08.457Z,77.22
2022-12-05T20:31:42.776Z,77.13
2022-12-05T20:34:15.518Z,77.18
2022-12-05T20:36:47.089Z,77.03
2022-12-05T20:39:18.723Z,76.86
2022-12-05T20:41:50.632Z,77.01
2022-12-05T20:44:22.291Z,76.88
2022-12-05T20:46:54.156Z,76.98
2022-12-05T20:49:25.722Z,76.72
2022-12-05T20:51:59.313Z,76.72
2022-12-05T20:54:31.085Z,77.38
2022-12-05T20:57:03.206Z,77.66
2022-12-05T20:59:34.938Z,77.71
2022-12-05T21:02:06.703Z,77.88
2022-12-05T21:04:40.939Z,77.39
2022-12-05T21:07:12.589Z,77.29
2022-12-05T21:09:45.117Z,77.44
2022-12-05T21:12:16.763Z,77.67
2022-12-05T21:14:48.542Z,77.31
2022-12-05T21:17:20.193Z,77.26
2022-12-05T21:19:54.239Z,77.59
2022-12-05T21:22:25.994Z,77.01
2022-12-05T21:24:58.097Z,76.86
2022-12-05T21:27:31.154Z,77.12
2022-12-05T21:30:02.799Z,76.97
2022-12-05T21:32:34.596Z,76.93
2022-12-05T21:35:06.340Z,76.92
2022-12-05T21:37:39.547Z,76.91
2022-12-05T21:40:11.484Z,77.15
2022-12-05T21:42:43.046Z,77.29
2022-12-05T21:45:14.770Z,76.71
2022-12-05T21:47:46.349Z,77.37
2022-12-05T21:50:18.028Z,76.44
2022-12-05T21:52:49.728Z,76.65
2022-12-05T21:55:21.658Z,76.64
2022-12-05T21:57:53.248Z,76.71
2022-12-05T22:00:24.947Z,76.35
2022-12-05T22:02:56.635Z,76.63
2022-12-05T22:05:28.408Z,77.00
2022-12-05T22:08:04.793Z,77.11
2022-12-05T22:10:38.339Z,77.00
2022-12-05T22:13:09.994Z,77.04
2022-12-05T22:15:44.748Z,77.04
2022-12-05T22:18:16.274Z,77.38
2022-12-05T22:20:57.988Z,77.10
2022-12-05T22:23:30.219Z,77.05
2022-12-05T22:26:07.774Z,76.70
2022-12-05T22:28:40.012Z,76.73
2022-12-05T22:31:14.572Z,76.60
2022-12-05T22:33:47.020Z,77.09
2022-12-05T22:36:19.817Z,76.94
2022-12-05T22:38:51.548Z,77.38
2022-12-05T22:41:26.330Z,77.53
2022-12-05T22:43:58.901Z,77.84
2022-12-05T22:46:31.017Z,77.75
2022-12-05T22:49:04.666Z,77.37
2022-12-05T22:51:36.470Z,77.80
2022-12-05T22:54:08.171Z,77.66
2022-12-05T22:56:39.878Z,77.60
2022-12-05T22:59:14.661Z,77.77
2022-12-05T23:01:46.589Z,77.80
2022-12-05T23:04:18.363Z,77.77
2022-12-05T23:06:50.036Z,77.84
2022-12-05T23:09:21.953Z,78.43
2022-12-05T23:11:53.637Z,78.60
2022-12-05T23:14:25.277Z,78.84
2022-12-05T23:16:57.001Z,79.43
2022-12-05T23:19:28.659Z,79.44
2022-12-05T23:22:00.322Z,79.49
2022-12-05T23:24:31.973Z,79.92
2022-12-05T23:27:03.683Z,79.61
2022-12-05T23:29:35.530Z,79.99
2022-12-05T23:32:07.097Z,80.18
2022-12-05T23:34:38.842Z,81.37
2022-12-05T23:37:10.473Z,80.75
2022-12-05T23:39:42.135Z,80.47
2022-12-05T23:42:15.411Z,81.58
2022-12-05T23:44:47.157Z,82.23
2022-12-05T23:47:18.827Z,82.47
2022-12-05T23:49:50.488Z,82.14
2022-12-05T23:52:22.198Z,82.76
2022-12-05T23:54:53.877Z,82.67
2022-12-05T23:57:25.530Z,82.86
2022-12-05T23:59:57.414Z,83.56
